sensor_id;sensor_type;location;lat;lon;timestamp;P1;durP1;ratioP1;P2;durP2;ratioP2
5823;SDS011;2938;52.254;12.988;2023-06-22T00:00:11;24.33;;;21.80;;
5823;SDS011;2938;52.254;12.988;2023-06-22T00:02:37;24.30;;;21.80;;
5823;SDS011;2938;52.254;12.988;2023-06-22T00:05:02;24.42;;;21.85;;
5823;SDS011;2938;52.254;12.988;2023-06-22T00:07:27;24.40;;;21.92;;
5823;SDS011;2938;52.254;12.988;2023-06-22T00:09:53;25.75;;;22.45;;
5823;SDS011;2938;52.254;12.988;2023-06-22T00:12:18;27.23;;;22.58;;
5823;SDS011;2938;52.254;12.988;2023-06-22T00:14:43;22.47;;;20.17;;
5823;SDS011;2938;52.254;12.988;2023-06-22T00:17:08;22.57;;;20.27;;
5823;SDS011;2938;52.254;12.988;2023-06-22T00:19:34;22.63;;;19.48;;
5823;SDS011;2938;52.254;12.988;2023-06-22T00:22:00;22.40;;;19.02;;
5823;SDS011;2938;52.254;12.988;2023-06-22T00:24:25;23.00;;;20.55;;
5823;SDS011;2938;52.254;12.988;2023-06-22T00:26:50;21.58;;;19.42;;
5823;SDS011;2938;52.254;12.988;2023-06-22T00:29:16;23.60;;;18.88;;
5823;SDS011;2938;52.254;12.988;2023-06-22T00:31:42;20.92;;;18.83;;
5823;SDS011;2938;52.254;12.988;2023-06-22T00:34:07;24.42;;;21.50;;
5823;SDS011;2938;52.254;12.988;2023-06-22T00:36:33;21.63;;;19.15;;
5823;SDS011;2938;52.254;12.988;2023-06-22T00:38:59;20.25;;;18.17;;
5823;SDS011;2938;52.254;12.988;2023-06-22T00:41:24;19.02;;;17.02;;
5823;SDS011;2938;52.254;12.988;2023-06-22T00:43:53;19.67;;;17.80;;
5823;SDS011;2938;52.254;12.988;2023-06-22T00:46:18;21.98;;;19.67;;
5823;SDS011;2938;52.254;12.988;2023-06-22T00:48:44;21.45;;;18.75;;
5823;SDS011;2938;52.254;12.988;2023-06-22T00:51:09;24.75;;;18.45;;
5823;SDS011;2938;52.254;12.988;2023-06-22T00:53:35;25.17;;;19.80;;
5823;SDS011;2938;52.254;12.988;2023-06-22T00:56:02;20.67;;;18.52;;
5823;SDS011;2938;52.254;12.988;2023-06-22T00:58:28;20.33;;;18.15;;
5823;SDS011;2938;52.254;12.988;2023-06-22T01:00:53;20.33;;;18.27;;
5823;SDS011;2938;52.254;12.988;2023-06-22T01:03:19;22.02;;;19.33;;
5823;SDS011;2938;52.254;12.988;2023-06-22T01:05:45;20.80;;;18.70;;
5823;SDS011;2938;52.254;12.988;2023-06-22T01:08:16;21.70;;;17.60;;
5823;SDS011;2938;52.254;12.988;2023-06-22T01:11:06;20.10;;;17.98;;
5823;SDS011;2938;52.254;12.988;2023-06-22T01:13:45;23.15;;;18.65;;
5823;SDS011;2938;52.254;12.988;2023-06-22T01:16:23;19.83;;;17.33;;
5823;SDS011;2938;52.254;12.988;2023-06-22T01:18:52;19.80;;;17.33;;
5823;SDS011;2938;52.254;12.988;2023-06-22T01:21:20;21.48;;;17.20;;
5823;SDS011;2938;52.254;12.988;2023-06-22T01:24:02;20.52;;;17.67;;
5823;SDS011;2938;52.254;12.988;2023-06-22T01:29:27;19.65;;;17.55;;
5823;SDS011;2938;52.254;12.988;2023-06-22T01:31:53;16.80;;;15.18;;
5823;SDS011;2938;52.254;12.988;2023-06-22T01:34:19;25.25;;;19.23;;
5823;SDS011;2938;52.254;12.988;2023-06-22T01:36:45;23.15;;;19.27;;
5823;SDS011;2938;52.254;12.988;2023-06-22T01:39:11;22.58;;;18.08;;
5823;SDS011;2938;52.254;12.988;2023-06-22T01:41:37;19.98;;;17.98;;
5823;SDS011;2938;52.254;12.988;2023-06-22T01:44:04;18.95;;;17.05;;
5823;SDS011;2938;52.254;12.988;2023-06-22T01:46:31;20.90;;;18.75;;
5823;SDS011;2938;52.254;12.988;2023-06-22T01:48:57;19.38;;;17.38;;
5823;SDS011;2938;52.254;12.988;2023-06-22T01:51:22;21.13;;;17.70;;
5823;SDS011;2938;52.254;12.988;2023-06-22T01:53:47;19.80;;;17.75;;
5823;SDS011;2938;52.254;12.988;2023-06-22T01:56:13;23.60;;;18.05;;
5823;SDS011;2938;52.254;12.988;2023-06-22T01:58:42;20.50;;;18.50;;
5823;SDS011;2938;52.254;12.988;2023-06-22T02:01:15;18.65;;;16.38;;
5823;SDS011;2938;52.254;12.988;2023-06-22T02:03:51;19.35;;;17.38;;
5823;SDS011;2938;52.254;12.988;2023-06-22T02:06:21;18.13;;;16.33;;
5823;SDS011;2938;52.254;12.988;2023-06-22T02:08:51;20.40;;;18.30;;
5823;SDS011;2938;52.254;12.988;2023-06-22T02:11:20;18.23;;;16.42;;
5823;SDS011;2938;52.254;12.988;2023-06-22T02:13:46;21.33;;;18.42;;
5823;SDS011;2938;52.254;12.988;2023-06-22T02:16:12;22.88;;;17.45;;
5823;SDS011;2938;52.254;12.988;2023-06-22T02:18:38;17.48;;;15.85;;
5823;SDS011;2938;52.254;12.988;2023-06-22T02:21:05;20.35;;;17.73;;
5823;SDS011;2938;52.254;12.988;2023-06-22T02:23:30;18.80;;;16.67;;
5823;SDS011;2938;52.254;12.988;2023-06-22T02:25:58;21.33;;;15.75;;
5823;SDS011;2938;52.254;12.988;2023-06-22T02:28:23;20.60;;;17.23;;
5823;SDS011;2938;52.254;12.988;2023-06-22T02:30:48;25.63;;;17.83;;
5823;SDS011;2938;52.254;12.988;2023-06-22T02:33:14;22.85;;;18.00;;
5823;SDS011;2938;52.254;12.988;2023-06-22T02:35:39;21.35;;;19.05;;
5823;SDS011;2938;52.254;12.988;2023-06-22T02:38:04;21.80;;;18.70;;
5823;SDS011;2938;52.254;12.988;2023-06-22T02:40:30;20.67;;;18.50;;
5823;SDS011;2938;52.254;12.988;2023-06-22T02:42:56;20.27;;;18.35;;
5823;SDS011;2938;52.254;12.988;2023-06-22T02:45:23;25.60;;;18.90;;
5823;SDS011;2938;52.254;12.988;2023-06-22T02:47:48;19.93;;;17.90;;
5823;SDS011;2938;52.254;12.988;2023-06-22T02:50:13;21.88;;;19.65;;
5823;SDS011;2938;52.254;12.988;2023-06-22T02:52:39;21.35;;;19.02;;
5823;SDS011;2938;52.254;12.988;2023-06-22T02:55:04;20.73;;;18.58;;
5823;SDS011;2938;52.254;12.988;2023-06-22T02:57:32;18.58;;;16.63;;
5823;SDS011;2938;52.254;12.988;2023-06-22T02:59:57;22.50;;;19.10;;
5823;SDS011;2938;52.254;12.988;2023-06-22T03:02:22;21.08;;;18.92;;
5823;SDS011;2938;52.254;12.988;2023-06-22T03:04:48;20.90;;;18.10;;
5823;SDS011;2938;52.254;12.988;2023-06-22T03:07:14;20.63;;;18.52;;
5823;SDS011;2938;52.254;12.988;2023-06-22T03:09:39;20.85;;;18.67;;
5823;SDS011;2938;52.254;12.988;2023-06-22T03:12:05;27.38;;;20.55;;
5823;SDS011;2938;52.254;12.988;2023-06-22T03:14:31;21.08;;;18.98;;
5823;SDS011;2938;52.254;12.988;2023-06-22T03:16:56;21.30;;;19.00;;
5823;SDS011;2938;52.254;12.988;2023-06-22T03:19:26;18.60;;;16.67;;
5823;SDS011;2938;52.254;12.988;2023-06-22T03:21:53;22.13;;;19.30;;
5823;SDS011;2938;52.254;12.988;2023-06-22T03:24:18;20.90;;;17.77;;
5823;SDS011;2938;52.254;12.988;2023-06-22T03:26:43;21.80;;;19.15;;
5823;SDS011;2938;52.254;12.988;2023-06-22T03:29:11;23.08;;;19.65;;
5823;SDS011;2938;52.254;12.988;2023-06-22T03:31:36;22.03;;;18.33;;
5823;SDS011;2938;52.254;12.988;2023-06-22T03:34:02;26.00;;;19.40;;
5823;SDS011;2938;52.254;12.988;2023-06-22T03:36:27;21.98;;;18.83;;
5823;SDS011;2938;52.254;12.988;2023-06-22T03:38:52;20.60;;;18.52;;
5823;SDS011;2938;52.254;12.988;2023-06-22T03:41:18;20.30;;;18.17;;
5823;SDS011;2938;52.254;12.988;2023-06-22T03:43:43;22.37;;;18.93;;
5823;SDS011;2938;52.254;12.988;2023-06-22T03:46:08;19.52;;;17.63;;
5823;SDS011;2938;52.254;12.988;2023-06-22T03:48:37;19.40;;;17.40;;
5823;SDS011;2938;52.254;12.988;2023-06-22T03:51:02;22.77;;;18.52;;
5823;SDS011;2938;52.254;12.988;2023-06-22T03:53:28;22.23;;;19.88;;
5823;SDS011;2938;52.254;12.988;2023-06-22T03:55:53;22.15;;;19.65;;
5823;SDS011;2938;52.254;12.988;2023-06-22T03:58:19;19.43;;;17.53;;
5823;SDS011;2938;52.254;12.988;2023-06-22T04:00:45;20.60;;;17.50;;
5823;SDS011;2938;52.254;12.988;2023-06-22T04:03:11;19.05;;;17.15;;
5823;SDS011;2938;52.254;12.988;2023-06-22T04:05:38;20.50;;;18.45;;
5823;SDS011;2938;52.254;12.988;2023-06-22T04:08:04;21.02;;;18.92;;
5823;SDS011;2938;52.254;12.988;2023-06-22T04:10:29;21.58;;;19.33;;
5823;SDS011;2938;52.254;12.988;2023-06-22T04:12:54;22.00;;;18.23;;
5823;SDS011;2938;52.254;12.988;2023-06-22T04:15:20;20.57;;;18.43;;
5823;SDS011;2938;52.254;12.988;2023-06-22T04:17:45;20.77;;;18.57;;
5823;SDS011;2938;52.254;12.988;2023-06-22T04:20:10;20.52;;;18.42;;
5823;SDS011;2938;52.254;12.988;2023-06-22T04:22:36;24.90;;;18.40;;
5823;SDS011;2938;52.254;12.988;2023-06-22T04:25:01;24.07;;;19.97;;
5823;SDS011;2938;52.254;12.988;2023-06-22T04:27:26;26.02;;;20.20;;
5823;SDS011;2938;52.254;12.988;2023-06-22T04:29:52;20.13;;;18.13;;
5823;SDS011;2938;52.254;12.988;2023-06-22T04:32:17;24.40;;;18.50;;
5823;SDS011;2938;52.254;12.988;2023-06-22T04:34:43;17.73;;;15.77;;
5823;SDS011;2938;52.254;12.988;2023-06-22T04:37:08;22.20;;;18.80;;
5823;SDS011;2938;52.254;12.988;2023-06-22T04:39:34;21.13;;;19.00;;
5823;SDS011;2938;52.254;12.988;2023-06-22T04:41:59;21.03;;;18.83;;
5823;SDS011;2938;52.254;12.988;2023-06-22T04:44:25;24.98;;;19.23;;
5823;SDS011;2938;52.254;12.988;2023-06-22T04:46:51;21.50;;;19.27;;
5823;SDS011;2938;52.254;12.988;2023-06-22T04:51:48;21.10;;;18.70;;
5823;SDS011;2938;52.254;12.988;2023-06-22T04:54:13;22.05;;;19.58;;
5823;SDS011;2938;52.254;12.988;2023-06-22T04:56:39;21.40;;;19.20;;
5823;SDS011;2938;52.254;12.988;2023-06-22T04:59:05;21.77;;;19.58;;
5823;SDS011;2938;52.254;12.988;2023-06-22T05:01:31;25.05;;;19.02;;
5823;SDS011;2938;52.254;12.988;2023-06-22T05:03:57;23.95;;;19.25;;
5823;SDS011;2938;52.254;12.988;2023-06-22T05:06:23;22.35;;;19.98;;
5823;SDS011;2938;52.254;12.988;2023-06-22T05:08:50;19.88;;;17.80;;
5823;SDS011;2938;52.254;12.988;2023-06-22T05:11:17;22.85;;;18.90;;
5823;SDS011;2938;52.254;12.988;2023-06-22T05:13:42;25.03;;;17.97;;
5823;SDS011;2938;52.254;12.988;2023-06-22T05:16:07;18.08;;;16.17;;
5823;SDS011;2938;52.254;12.988;2023-06-22T05:18:33;21.07;;;16.80;;
5823;SDS011;2938;52.254;12.988;2023-06-22T05:21:18;19.85;;;17.73;;
5823;SDS011;2938;52.254;12.988;2023-06-22T05:23:46;20.27;;;17.27;;
5823;SDS011;2938;52.254;12.988;2023-06-22T05:26:11;21.48;;;16.75;;
5823;SDS011;2938;52.254;12.988;2023-06-22T05:28:36;21.07;;;16.40;;
5823;SDS011;2938;52.254;12.988;2023-06-22T05:31:02;21.20;;;16.13;;
5823;SDS011;2938;52.254;12.988;2023-06-22T05:33:27;21.52;;;17.38;;
5823;SDS011;2938;52.254;12.988;2023-06-22T05:35:52;17.35;;;15.38;;
5823;SDS011;2938;52.254;12.988;2023-06-22T05:38:18;20.50;;;14.83;;
5823;SDS011;2938;52.254;12.988;2023-06-22T05:40:43;15.90;;;14.17;;
5823;SDS011;2938;52.254;12.988;2023-06-22T05:43:08;15.15;;;13.63;;
5823;SDS011;2938;52.254;12.988;2023-06-22T05:45:34;16.87;;;13.70;;
5823;SDS011;2938;52.254;12.988;2023-06-22T05:47:59;15.63;;;13.97;;
5823;SDS011;2938;52.254;12.988;2023-06-22T05:50:24;14.57;;;12.85;;
5823;SDS011;2938;52.254;12.988;2023-06-22T05:52:50;16.60;;;13.23;;
5823;SDS011;2938;52.254;12.988;2023-06-22T05:55:15;13.33;;;11.90;;
5823;SDS011;2938;52.254;12.988;2023-06-22T05:57:40;16.83;;;14.00;;
5823;SDS011;2938;52.254;12.988;2023-06-22T06:00:06;17.53;;;13.17;;
5823;SDS011;2938;52.254;12.988;2023-06-22T06:02:35;19.73;;;13.05;;
5823;SDS011;2938;52.254;12.988;2023-06-22T06:05:00;13.40;;;12.00;;
5823;SDS011;2938;52.254;12.988;2023-06-22T06:07:27;13.45;;;12.00;;
5823;SDS011;2938;52.254;12.988;2023-06-22T06:10:01;13.07;;;11.52;;
5823;SDS011;2938;52.254;12.988;2023-06-22T06:12:26;13.38;;;11.98;;
5823;SDS011;2938;52.254;12.988;2023-06-22T06:14:52;13.87;;;12.40;;
5823;SDS011;2938;52.254;12.988;2023-06-22T06:17:18;14.30;;;11.60;;
5823;SDS011;2938;52.254;12.988;2023-06-22T06:19:43;12.37;;;11.20;;
5823;SDS011;2938;52.254;12.988;2023-06-22T06:22:09;12.07;;;10.97;;
5823;SDS011;2938;52.254;12.988;2023-06-22T06:24:34;14.20;;;11.77;;
5823;SDS011;2938;52.254;12.988;2023-06-22T06:26:59;13.13;;;10.50;;
5823;SDS011;2938;52.254;12.988;2023-06-22T06:29:24;15.73;;;11.83;;
5823;SDS011;2938;52.254;12.988;2023-06-22T06:31:50;11.57;;;10.13;;
5823;SDS011;2938;52.254;12.988;2023-06-22T06:34:15;11.63;;;10.25;;
5823;SDS011;2938;52.254;12.988;2023-06-22T06:36:40;12.15;;;10.77;;
5823;SDS011;2938;52.254;12.988;2023-06-22T06:39:06;11.45;;;10.23;;
5823;SDS011;2938;52.254;12.988;2023-06-22T06:41:31;11.80;;;10.60;;
5823;SDS011;2938;52.254;12.988;2023-06-22T06:43:56;11.70;;;10.50;;
5823;SDS011;2938;52.254;12.988;2023-06-22T06:46:22;12.30;;;11.10;;
5823;SDS011;2938;52.254;12.988;2023-06-22T06:48:47;12.95;;;10.77;;
5823;SDS011;2938;52.254;12.988;2023-06-22T06:51:13;12.55;;;11.30;;
5823;SDS011;2938;52.254;12.988;2023-06-22T06:53:38;11.13;;;10.13;;
5823;SDS011;2938;52.254;12.988;2023-06-22T06:56:03;12.43;;;9.60;;
5823;SDS011;2938;52.254;12.988;2023-06-22T06:58:30;11.25;;;9.85;;
5823;SDS011;2938;52.254;12.988;2023-06-22T07:00:55;11.23;;;9.88;;
5823;SDS011;2938;52.254;12.988;2023-06-22T07:03:21;20.47;;;10.33;;
5823;SDS011;2938;52.254;12.988;2023-06-22T07:05:46;14.43;;;10.05;;
5823;SDS011;2938;52.254;12.988;2023-06-22T07:08:11;10.53;;;9.50;;
5823;SDS011;2938;52.254;12.988;2023-06-22T07:10:37;12.70;;;10.80;;
5823;SDS011;2938;52.254;12.988;2023-06-22T07:13:03;12.73;;;11.05;;
5823;SDS011;2938;52.254;12.988;2023-06-22T07:15:28;11.80;;;10.63;;
5823;SDS011;2938;52.254;12.988;2023-06-22T07:17:53;12.23;;;10.77;;
5823;SDS011;2938;52.254;12.988;2023-06-22T07:20:19;14.43;;;10.95;;
5823;SDS011;2938;52.254;12.988;2023-06-22T07:22:47;10.98;;;9.82;;
5823;SDS011;2938;52.254;12.988;2023-06-22T07:25:15;11.63;;;10.45;;
5823;SDS011;2938;52.254;12.988;2023-06-22T07:28:01;11.77;;;9.85;;
5823;SDS011;2938;52.254;12.988;2023-06-22T07:30:28;11.40;;;10.38;;
5823;SDS011;2938;52.254;12.988;2023-06-22T07:32:57;12.90;;;10.02;;
5823;SDS011;2938;52.254;12.988;2023-06-22T07:35:23;11.88;;;10.68;;
5823;SDS011;2938;52.254;12.988;2023-06-22T07:37:49;15.10;;;9.95;;
5823;SDS011;2938;52.254;12.988;2023-06-22T07:40:15;13.77;;;9.57;;
5823;SDS011;2938;52.254;12.988;2023-06-22T07:42:41;11.07;;;10.05;;
5823;SDS011;2938;52.254;12.988;2023-06-22T07:45:07;9.77;;;8.63;;
5823;SDS011;2938;52.254;12.988;2023-06-22T07:47:35;11.85;;;8.75;;
5823;SDS011;2938;52.254;12.988;2023-06-22T07:50:01;14.07;;;9.82;;
5823;SDS011;2938;52.254;12.988;2023-06-22T07:52:27;10.35;;;8.63;;
5823;SDS011;2938;52.254;12.988;2023-06-22T07:54:53;10.00;;;8.98;;
5823;SDS011;2938;52.254;12.988;2023-06-22T07:57:19;9.98;;;9.07;;
5823;SDS011;2938;52.254;12.988;2023-06-22T07:59:44;14.35;;;9.25;;
5823;SDS011;2938;52.254;12.988;2023-06-22T08:02:10;10.00;;;9.00;;
5823;SDS011;2938;52.254;12.988;2023-06-22T08:04:36;15.40;;;9.80;;
5823;SDS011;2938;52.254;12.988;2023-06-22T08:07:01;13.48;;;9.43;;
5823;SDS011;2938;52.254;12.988;2023-06-22T08:09:30;9.63;;;8.73;;
5823;SDS011;2938;52.254;12.988;2023-06-22T08:11:56;10.23;;;8.27;;
5823;SDS011;2938;52.254;12.988;2023-06-22T08:14:22;11.35;;;8.73;;
5823;SDS011;2938;52.254;12.988;2023-06-22T08:16:48;10.15;;;7.95;;
5823;SDS011;2938;52.254;12.988;2023-06-22T08:19:13;10.53;;;7.43;;
5823;SDS011;2938;52.254;12.988;2023-06-22T08:21:42;10.50;;;7.88;;
5823;SDS011;2938;52.254;12.988;2023-06-22T08:24:07;8.20;;;7.30;;
5823;SDS011;2938;52.254;12.988;2023-06-22T08:26:33;12.38;;;9.07;;
5823;SDS011;2938;52.254;12.988;2023-06-22T08:29:01;8.90;;;8.00;;
5823;SDS011;2938;52.254;12.988;2023-06-22T08:31:27;14.43;;;7.70;;
5823;SDS011;2938;52.254;12.988;2023-06-22T08:33:52;18.43;;;7.70;;
5823;SDS011;2938;52.254;12.988;2023-06-22T08:36:18;12.63;;;8.13;;
5823;SDS011;2938;52.254;12.988;2023-06-22T08:38:43;12.93;;;8.17;;
5823;SDS011;2938;52.254;12.988;2023-06-22T08:41:09;12.50;;;8.27;;
5823;SDS011;2938;52.254;12.988;2023-06-22T08:43:34;11.50;;;7.43;;
5823;SDS011;2938;52.254;12.988;2023-06-22T08:46:00;9.23;;;8.17;;
5823;SDS011;2938;52.254;12.988;2023-06-22T08:48:25;11.55;;;8.27;;
5823;SDS011;2938;52.254;12.988;2023-06-22T08:50:51;15.67;;;8.57;;
5823;SDS011;2938;52.254;12.988;2023-06-22T08:53:16;11.13;;;9.17;;
5823;SDS011;2938;52.254;12.988;2023-06-22T08:55:41;9.15;;;7.68;;
5823;SDS011;2938;52.254;12.988;2023-06-22T08:58:07;10.73;;;9.37;;
5823;SDS011;2938;52.254;12.988;2023-06-22T09:00:32;11.38;;;7.47;;
5823;SDS011;2938;52.254;12.988;2023-06-22T09:02:59;11.98;;;7.80;;
5823;SDS011;2938;52.254;12.988;2023-06-22T09:05:25;10.23;;;9.07;;
5823;SDS011;2938;52.254;12.988;2023-06-22T09:07:51;13.30;;;9.52;;
5823;SDS011;2938;52.254;12.988;2023-06-22T09:10:16;9.70;;;8.27;;
5823;SDS011;2938;52.254;12.988;2023-06-22T09:12:42;11.70;;;8.38;;
5823;SDS011;2938;52.254;12.988;2023-06-22T09:15:07;8.88;;;7.97;;
5823;SDS011;2938;52.254;12.988;2023-06-22T09:17:33;8.98;;;8.18;;
5823;SDS011;2938;52.254;12.988;2023-06-22T09:20:01;9.43;;;8.10;;
5823;SDS011;2938;52.254;12.988;2023-06-22T09:22:27;9.50;;;8.43;;
5823;SDS011;2938;52.254;12.988;2023-06-22T09:24:54;9.07;;;8.30;;
5823;SDS011;2938;52.254;12.988;2023-06-22T09:27:20;10.90;;;8.40;;
5823;SDS011;2938;52.254;12.988;2023-06-22T09:29:46;9.50;;;8.43;;
5823;SDS011;2938;52.254;12.988;2023-06-22T09:32:11;8.37;;;7.33;;
5823;SDS011;2938;52.254;12.988;2023-06-22T09:34:36;9.23;;;7.93;;
5823;SDS011;2938;52.254;12.988;2023-06-22T09:37:02;8.67;;;7.77;;
5823;SDS011;2938;52.254;12.988;2023-06-22T09:39:27;9.63;;;7.88;;
5823;SDS011;2938;52.254;12.988;2023-06-22T09:41:52;8.30;;;7.45;;
5823;SDS011;2938;52.254;12.988;2023-06-22T09:44:18;11.85;;;9.32;;
5823;SDS011;2938;52.254;12.988;2023-06-22T09:46:43;11.93;;;8.13;;
5823;SDS011;2938;52.254;12.988;2023-06-22T09:49:08;11.93;;;7.68;;
5823;SDS011;2938;52.254;12.988;2023-06-22T09:51:34;8.47;;;6.97;;
5823;SDS011;2938;52.254;12.988;2023-06-22T09:53:59;11.23;;;7.50;;
5823;SDS011;2938;52.254;12.988;2023-06-22T09:56:24;12.23;;;7.07;;
5823;SDS011;2938;52.254;12.988;2023-06-22T09:58:53;10.80;;;7.78;;
5823;SDS011;2938;52.254;12.988;2023-06-22T10:01:18;10.13;;;8.13;;
5823;SDS011;2938;52.254;12.988;2023-06-22T10:03:46;6.53;;;5.95;;
5823;SDS011;2938;52.254;12.988;2023-06-22T10:06:11;7.90;;;7.10;;
5823;SDS011;2938;52.254;12.988;2023-06-22T10:08:36;8.23;;;6.20;;
5823;SDS011;2938;52.254;12.988;2023-06-22T10:11:02;11.23;;;6.82;;
5823;SDS011;2938;52.254;12.988;2023-06-22T10:13:28;9.98;;;7.45;;
5823;SDS011;2938;52.254;12.988;2023-06-22T10:15:54;7.72;;;7.03;;
5823;SDS011;2938;52.254;12.988;2023-06-22T10:18:19;8.07;;;6.65;;
5823;SDS011;2938;52.254;12.988;2023-06-22T10:20:46;7.93;;;7.17;;
5823;SDS011;2938;52.254;12.988;2023-06-22T10:23:12;7.38;;;6.78;;
5823;SDS011;2938;52.254;12.988;2023-06-22T10:25:38;8.50;;;6.68;;
5823;SDS011;2938;52.254;12.988;2023-06-22T10:28:03;13.32;;;8.55;;
5823;SDS011;2938;52.254;12.988;2023-06-22T10:30:28;9.07;;;7.40;;
5823;SDS011;2938;52.254;12.988;2023-06-22T10:32:54;9.93;;;8.88;;
5823;SDS011;2938;52.254;12.988;2023-06-22T10:35:19;8.65;;;7.28;;
5823;SDS011;2938;52.254;12.988;2023-06-22T10:37:45;8.68;;;7.65;;
5823;SDS011;2938;52.254;12.988;2023-06-22T10:40:11;10.88;;;8.65;;
5823;SDS011;2938;52.254;12.988;2023-06-22T10:42:41;8.68;;;7.90;;
5823;SDS011;2938;52.254;12.988;2023-06-22T10:45:07;10.40;;;6.72;;
5823;SDS011;2938;52.254;12.988;2023-06-22T10:47:34;14.70;;;7.88;;
5823;SDS011;2938;52.254;12.988;2023-06-22T10:49:59;8.80;;;7.25;;
5823;SDS011;2938;52.254;12.988;2023-06-22T10:52:25;8.73;;;7.53;;
5823;SDS011;2938;52.254;12.988;2023-06-22T10:54:50;6.80;;;6.22;;
5823;SDS011;2938;52.254;12.988;2023-06-22T10:57:15;8.00;;;7.30;;
5823;SDS011;2938;52.254;12.988;2023-06-22T10:59:40;7.13;;;6.53;;
5823;SDS011;2938;52.254;12.988;2023-06-22T11:02:06;8.00;;;7.20;;
5823;SDS011;2938;52.254;12.988;2023-06-22T11:04:31;8.50;;;7.77;;
5823;SDS011;2938;52.254;12.988;2023-06-22T11:06:56;9.50;;;8.38;;
5823;SDS011;2938;52.254;12.988;2023-06-22T11:09:22;7.70;;;7.03;;
5823;SDS011;2938;52.254;12.988;2023-06-22T11:11:47;8.43;;;7.72;;
5823;SDS011;2938;52.254;12.988;2023-06-22T11:14:15;18.40;;;7.43;;
5823;SDS011;2938;52.254;12.988;2023-06-22T11:16:40;8.85;;;7.82;;
5823;SDS011;2938;52.254;12.988;2023-06-22T11:19:05;11.70;;;8.23;;
5823;SDS011;2938;52.254;12.988;2023-06-22T11:21:31;8.60;;;7.30;;
5823;SDS011;2938;52.254;12.988;2023-06-22T11:23:56;7.97;;;7.28;;
5823;SDS011;2938;52.254;12.988;2023-06-22T11:26:22;9.13;;;8.23;;
5823;SDS011;2938;52.254;12.988;2023-06-22T11:28:47;6.93;;;6.28;;
5823;SDS011;2938;52.254;12.988;2023-06-22T11:31:13;8.60;;;7.80;;
5823;SDS011;2938;52.254;12.988;2023-06-22T11:33:38;8.65;;;7.75;;
5823;SDS011;2938;52.254;12.988;2023-06-22T11:36:04;11.88;;;8.32;;
5823;SDS011;2938;52.254;12.988;2023-06-22T11:38:30;7.28;;;6.63;;
5823;SDS011;2938;52.254;12.988;2023-06-22T11:40:55;7.95;;;7.13;;
5823;SDS011;2938;52.254;12.988;2023-06-22T11:43:23;7.90;;;6.78;;
5823;SDS011;2938;52.254;12.988;2023-06-22T11:45:48;8.80;;;7.90;;
5823;SDS011;2938;52.254;12.988;2023-06-22T11:48:13;8.07;;;7.37;;
5823;SDS011;2938;52.254;12.988;2023-06-22T11:50:39;8.60;;;6.83;;
5823;SDS011;2938;52.254;12.988;2023-06-22T11:53:04;6.80;;;6.18;;
5823;SDS011;2938;52.254;12.988;2023-06-22T11:55:29;8.77;;;7.70;;
5823;SDS011;2938;52.254;12.988;2023-06-22T11:57:56;5.78;;;5.28;;
5823;SDS011;2938;52.254;12.988;2023-06-22T12:00:24;9.38;;;7.70;;
5823;SDS011;2938;52.254;12.988;2023-06-22T12:02:50;9.02;;;6.85;;
5823;SDS011;2938;52.254;12.988;2023-06-22T12:05:19;8.32;;;7.60;;
5823;SDS011;2938;52.254;12.988;2023-06-22T12:07:46;8.32;;;6.78;;
5823;SDS011;2938;52.254;12.988;2023-06-22T12:10:11;8.20;;;7.47;;
5823;SDS011;2938;52.254;12.988;2023-06-22T12:12:36;7.50;;;6.70;;
5823;SDS011;2938;52.254;12.988;2023-06-22T12:15:02;10.35;;;6.40;;
5823;SDS011;2938;52.254;12.988;2023-06-22T12:17:28;8.13;;;6.70;;
5823;SDS011;2938;52.254;12.988;2023-06-22T12:19:54;7.82;;;6.07;;
5823;SDS011;2938;52.254;12.988;2023-06-22T12:22:20;13.90;;;7.10;;
5823;SDS011;2938;52.254;12.988;2023-06-22T12:24:45;9.40;;;6.60;;
5823;SDS011;2938;52.254;12.988;2023-06-22T12:27:10;7.73;;;6.73;;
5823;SDS011;2938;52.254;12.988;2023-06-22T12:29:36;9.50;;;7.10;;
5823;SDS011;2938;52.254;12.988;2023-06-22T12:32:01;6.87;;;6.17;;
5823;SDS011;2938;52.254;12.988;2023-06-22T12:34:26;7.30;;;6.60;;
5823;SDS011;2938;52.254;12.988;2023-06-22T12:36:52;9.33;;;7.13;;
5823;SDS011;2938;52.254;12.988;2023-06-22T12:39:19;7.50;;;6.72;;
5823;SDS011;2938;52.254;12.988;2023-06-22T12:41:44;7.70;;;6.80;;
5823;SDS011;2938;52.254;12.988;2023-06-22T12:44:10;7.80;;;7.05;;
5823;SDS011;2938;52.254;12.988;2023-06-22T12:46:35;9.10;;;7.07;;
5823;SDS011;2938;52.254;12.988;2023-06-22T12:49:03;8.23;;;7.25;;
5823;SDS011;2938;52.254;12.988;2023-06-22T12:51:29;7.20;;;6.55;;
5823;SDS011;2938;52.254;12.988;2023-06-22T12:53:54;9.48;;;8.20;;
5823;SDS011;2938;52.254;12.988;2023-06-22T12:56:19;7.53;;;6.73;;
5823;SDS011;2938;52.254;12.988;2023-06-22T12:58:45;7.93;;;7.23;;
5823;SDS011;2938;52.254;12.988;2023-06-22T13:01:10;9.27;;;7.13;;
5823;SDS011;2938;52.254;12.988;2023-06-22T13:03:35;7.10;;;6.50;;
5823;SDS011;2938;52.254;12.988;2023-06-22T13:06:00;8.93;;;7.30;;
5823;SDS011;2938;52.254;12.988;2023-06-22T13:08:27;9.02;;;8.20;;
5823;SDS011;2938;52.254;12.988;2023-06-22T13:10:52;10.03;;;7.47;;
5823;SDS011;2938;52.254;12.988;2023-06-22T13:13:17;8.00;;;7.30;;
5823;SDS011;2938;52.254;12.988;2023-06-22T13:15:43;8.00;;;7.20;;
5823;SDS011;2938;52.254;12.988;2023-06-22T13:18:08;7.90;;;7.20;;
5823;SDS011;2938;52.254;12.988;2023-06-22T13:20:33;7.93;;;7.23;;
5823;SDS011;2938;52.254;12.988;2023-06-22T13:22:59;8.60;;;6.57;;
5823;SDS011;2938;52.254;12.988;2023-06-22T13:25:24;7.10;;;6.50;;
5823;SDS011;2938;52.254;12.988;2023-06-22T13:27:51;11.57;;;7.20;;
5823;SDS011;2938;52.254;12.988;2023-06-22T13:30:16;8.20;;;7.30;;
5823;SDS011;2938;52.254;12.988;2023-06-22T13:32:42;9.73;;;7.63;;
5823;SDS011;2938;52.254;12.988;2023-06-22T13:35:08;8.65;;;7.70;;
5823;SDS011;2938;52.254;12.988;2023-06-22T13:37:36;12.35;;;7.78;;
5823;SDS011;2938;52.254;12.988;2023-06-22T13:40:02;12.32;;;7.60;;
5823;SDS011;2938;52.254;12.988;2023-06-22T13:42:30;9.00;;;8.20;;
5823;SDS011;2938;52.254;12.988;2023-06-22T13:44:55;7.95;;;7.25;;
5823;SDS011;2938;52.254;12.988;2023-06-22T13:47:21;7.97;;;7.27;;
5823;SDS011;2938;52.254;12.988;2023-06-22T13:49:46;7.93;;;6.73;;
5823;SDS011;2938;52.254;12.988;2023-06-22T13:52:11;9.03;;;6.53;;
5823;SDS011;2938;52.254;12.988;2023-06-22T13:54:37;8.68;;;7.85;;
5823;SDS011;2938;52.254;12.988;2023-06-22T13:57:03;9.02;;;5.88;;
5823;SDS011;2938;52.254;12.988;2023-06-22T13:59:28;11.23;;;7.90;;
5823;SDS011;2938;52.254;12.988;2023-06-22T14:01:53;13.47;;;7.40;;
5823;SDS011;2938;52.254;12.988;2023-06-22T14:04:19;11.20;;;7.20;;
5823;SDS011;2938;52.254;12.988;2023-06-22T14:06:44;7.03;;;6.43;;
5823;SDS011;2938;52.254;12.988;2023-06-22T14:09:09;10.93;;;7.07;;
5823;SDS011;2938;52.254;12.988;2023-06-22T14:11:35;12.10;;;7.00;;
5823;SDS011;2938;52.254;12.988;2023-06-22T14:14:00;7.50;;;6.70;;
5823;SDS011;2938;52.254;12.988;2023-06-22T14:16:25;8.53;;;7.63;;
5823;SDS011;2938;52.254;12.988;2023-06-22T14:18:51;9.93;;;6.70;;
5823;SDS011;2938;52.254;12.988;2023-06-22T14:21:16;7.70;;;6.87;;
5823;SDS011;2938;52.254;12.988;2023-06-22T14:23:41;9.35;;;6.85;;
5823;SDS011;2938;52.254;12.988;2023-06-22T14:26:07;7.30;;;6.70;;
5823;SDS011;2938;52.254;12.988;2023-06-22T14:28:32;12.97;;;7.50;;
5823;SDS011;2938;52.254;12.988;2023-06-22T14:30:57;7.73;;;7.03;;
5823;SDS011;2938;52.254;12.988;2023-06-22T14:33:23;7.28;;;6.53;;
5823;SDS011;2938;52.254;12.988;2023-06-22T14:35:48;8.70;;;7.83;;
5823;SDS011;2938;52.254;12.988;2023-06-22T14:38:14;7.63;;;6.85;;
5823;SDS011;2938;52.254;12.988;2023-06-22T14:40:39;9.27;;;7.43;;
5823;SDS011;2938;52.254;12.988;2023-06-22T14:43:04;11.00;;;6.83;;